createdAt,value
2022-12-04T00:01:20.901Z,10.20
2022-12-04T00:03:48.223Z,11.50
2022-12-04T00:06:17.987Z,10.05
2022-12-04T00:08:45.578Z,9.68
2022-12-04T00:11:14.503Z,8.70
2022-12-04T00:13:41.485Z,9.25
2022-12-04T00:16:13.151Z,9.05
2022-12-04T00:18:39.963Z,8.40
2022-12-04T00:21:10.349Z,9.40
2022-12-04T00:23:37.512Z,9.57
2022-12-04T00:26:07.197Z,9.60
2022-12-04T00:28:35.614Z,10.63
2022-12-04T00:31:06.966Z,9.10
2022-12-04T00:33:33.971Z,10.45
2022-12-04T00:36:03.391Z,11.57
2022-12-04T00:38:30.132Z,9.63
2022-12-04T00:40:57.025Z,10.80
2022-12-04T00:43:24.360Z,12.55
2022-12-04T00:45:51.356Z,10.57
2022-12-04T00:48:18.104Z,10.13
2022-12-04T00:50:45.137Z,9.55
2022-12-04T00:53:12.764Z,9.77
2022-12-04T00:55:43.540Z,9.02
2022-12-04T00:58:10.938Z,9.88
2022-12-04T01:00:41.588Z,9.10
2022-12-04T01:03:09.389Z,10.40
2022-12-04T01:05:45.690Z,9.48
2022-12-04T01:08:13.082Z,9.38
2022-12-04T01:10:41.626Z,8.10
2022-12-04T01:13:09.104Z,7.67
2022-12-04T01:15:41.476Z,9.05
2022-12-04T01:18:08.241Z,9.05
2022-12-04T01:20:35.388Z,10.10
2022-12-04T01:23:02.197Z,9.80
2022-12-04T01:25:29.112Z,9.73
2022-12-04T01:27:56.033Z,9.10
2022-12-04T01:30:22.965Z,9.90
2022-12-04T01:32:49.876Z,10.50
2022-12-04T01:35:17.015Z,11.35
2022-12-04T01:37:43.683Z,9.00
2022-12-04T01:40:15.667Z,9.15
2022-12-04T01:42:42.391Z,9.90
2022-12-04T01:45:31.213Z,10.25
2022-12-04T01:48:05.359Z,9.80
2022-12-04T01:50:32.419Z,8.77
2022-12-04T01:52:59.520Z,8.68
2022-12-04T01:55:26.454Z,9.85
2022-12-04T01:57:53.100Z,8.75
2022-12-04T02:00:20.164Z,9.10
2022-12-04T02:02:47.683Z,10.53
2022-12-04T02:05:18.385Z,8.55
2022-12-04T02:07:48.636Z,9.40
2022-12-04T02:10:17.213Z,9.57
2022-12-04T02:12:47.507Z,10.68
2022-12-04T02:15:55.970Z,11.37
2022-12-04T02:18:31.334Z,9.23
2022-12-04T02:21:01.985Z,8.13
2022-12-04T02:23:59.986Z,9.35
2022-12-04T02:26:37.831Z,9.75
2022-12-04T02:29:16.867Z,10.03
2022-12-04T02:32:11.322Z,9.02
2022-12-04T02:35:03.286Z,8.77
2022-12-04T02:37:34.586Z,10.35
2022-12-04T02:40:26.933Z,9.20
2022-12-04T02:43:00.172Z,10.93
2022-12-04T02:45:33.474Z,9.45
2022-12-04T02:48:02.988Z,8.48
2022-12-04T02:50:32.380Z,8.98
2022-12-04T02:53:05.391Z,8.90
2022-12-04T02:55:38.777Z,7.87
2022-12-04T02:58:11.912Z,8.55
2022-12-04T03:00:41.500Z,8.43
2022-12-04T03:03:20.335Z,8.38
2022-12-04T03:06:05.627Z,10.00
2022-12-04T03:08:41.668Z,8.30
2022-12-04T03:11:08.720Z,8.93
2022-12-04T03:13:41.653Z,7.53
2022-12-04T03:16:13.842Z,8.40
2022-12-04T03:18:48.588Z,7.57
2022-12-04T03:21:20.263Z,8.20
2022-12-04T03:24:14.860Z,7.97
2022-12-04T03:26:46.781Z,6.93
2022-12-04T03:29:15.905Z,8.85
2022-12-04T03:32:06.267Z,7.88
2022-12-04T03:35:01.060Z,8.70
2022-12-04T03:37:39.374Z,8.35
2022-12-04T03:40:14.940Z,7.65
2022-12-04T03:42:53.399Z,7.88
2022-12-04T03:45:31.108Z,9.55
2022-12-04T03:48:16.755Z,8.57
2022-12-04T03:50:52.762Z,9.93
2022-12-04T03:53:43.763Z,10.50
2022-12-04T03:56:21.517Z,9.98
2022-12-04T03:58:52.774Z,9.52
2022-12-04T04:01:25.660Z,9.83
2022-12-04T04:03:55.202Z,9.15
2022-12-04T04:06:27.337Z,8.38
2022-12-04T04:08:58.386Z,8.38
2022-12-04T04:11:38.243Z,7.97
2022-12-04T04:14:33.184Z,7.47
2022-12-04T04:17:23.737Z,6.72
2022-12-04T04:20:14.702Z,7.88
2022-12-04T04:23:01.890Z,7.32
2022-12-04T04:25:29.140Z,6.70
2022-12-04T04:27:58.247Z,6.43
2022-12-04T04:30:27.334Z,6.85
2022-12-04T04:33:03.134Z,7.50
2022-12-04T04:35:40.237Z,6.95
2022-12-04T04:38:28.434Z,9.80
2022-12-04T04:41:11.566Z,8.17
2022-12-04T04:43:46.119Z,8.48
2022-12-04T04:46:24.095Z,6.70
2022-12-04T04:48:58.611Z,6.63
2022-12-04T04:51:27.462Z,6.93
2022-12-04T04:53:57.992Z,6.93
2022-12-04T04:56:25.146Z,7.45
2022-12-04T04:58:52.303Z,7.40
2022-12-04T05:01:28.686Z,6.75
2022-12-04T05:03:55.667Z,6.80
2022-12-04T05:06:22.307Z,7.87
2022-12-04T05:08:49.379Z,7.00
2022-12-04T05:11:16.865Z,6.45
2022-12-04T05:13:44.576Z,7.22
2022-12-04T05:16:13.836Z,7.78
2022-12-04T05:18:41.446Z,6.97
2022-12-04T05:21:10.329Z,7.75
2022-12-04T05:23:37.226Z,6.88
2022-12-04T05:26:05.202Z,7.20
2022-12-04T05:28:32.353Z,7.07
2022-12-04T05:31:02.090Z,8.30
2022-12-04T05:33:29.654Z,8.82
2022-12-04T05:36:00.739Z,6.90
2022-12-04T05:38:27.734Z,7.57
2022-12-04T05:40:54.683Z,7.25
2022-12-04T05:43:21.574Z,6.90
2022-12-04T05:45:48.260Z,6.22
2022-12-04T05:48:16.576Z,6.75
2022-12-04T05:50:43.274Z,8.35
2022-12-04T05:53:10.501Z,6.70
2022-12-04T05:55:37.559Z,7.97
2022-12-04T05:58:04.744Z,7.22
2022-12-04T06:00:31.634Z,7.30
2022-12-04T06:02:58.677Z,6.85
2022-12-04T06:05:25.546Z,7.15
2022-12-04T06:07:52.517Z,7.40
2022-12-04T06:10:19.263Z,6.75
2022-12-04T06:12:46.175Z,6.72
2022-12-04T06:15:12.834Z,7.07
2022-12-04T06:17:39.766Z,6.05
2022-12-04T06:20:11.416Z,6.23
2022-12-04T06:22:39.135Z,7.38
2022-12-04T06:25:07.035Z,6.50
2022-12-04T06:27:34.212Z,6.13
2022-12-04T06:30:00.912Z,7.07
2022-12-04T06:32:28.237Z,6.60
2022-12-04T06:34:55.252Z,6.40
2022-12-04T06:37:24.871Z,7.20
2022-12-04T06:39:51.591Z,6.55
2022-12-04T06:42:18.708Z,6.20
2022-12-04T06:44:45.392Z,6.30
2022-12-04T06:47:12.484Z,7.30
2022-12-04T06:49:39.118Z,6.97
2022-12-04T06:52:05.995Z,7.00
2022-12-04T06:54:32.651Z,6.70
2022-12-04T06:56:59.551Z,6.10
2022-12-04T06:59:26.411Z,6.30
2022-12-04T07:01:53.350Z,6.15
2022-12-04T07:04:20.247Z,5.80
2022-12-04T07:06:47.139Z,7.05
2022-12-04T07:09:16.130Z,6.33
2022-12-04T07:11:44.130Z,7.13
2022-12-04T07:14:12.164Z,8.45
2022-12-04T07:16:42.030Z,6.53
2022-12-04T07:19:10.628Z,5.90
2022-12-04T07:21:37.707Z,6.87
2022-12-04T07:24:04.688Z,7.43
2022-12-04T07:26:32.267Z,6.78
2022-12-04T07:28:59.496Z,6.90
2022-12-04T07:31:28.118Z,6.38
2022-12-04T07:33:56.490Z,6.63
2022-12-04T07:36:24.842Z,7.90
2022-12-04T07:38:52.163Z,7.47
2022-12-04T07:41:19.820Z,6.65
2022-12-04T07:43:47.038Z,7.40
2022-12-04T07:46:19.642Z,7.97
2022-12-04T07:48:46.483Z,7.43
2022-12-04T07:51:16.506Z,6.68
2022-12-04T07:53:43.819Z,6.68
2022-12-04T07:56:12.494Z,7.82
2022-12-04T07:58:39.764Z,7.07
2022-12-04T08:01:12.484Z,8.55
2022-12-04T08:03:48.111Z,7.07
2022-12-04T08:06:17.738Z,7.30
2022-12-04T08:08:44.687Z,6.28
2022-12-04T08:11:15.422Z,6.13
2022-12-04T08:13:42.135Z,7.95
2022-12-04T08:16:10.826Z,6.53
2022-12-04T08:18:38.275Z,8.40
2022-12-04T08:21:09.817Z,7.38
2022-12-04T08:23:36.832Z,7.13
2022-12-04T08:26:04.957Z,6.70
2022-12-04T08:28:32.140Z,7.30
2022-12-04T08:31:14.223Z,9.68
2022-12-04T08:33:42.243Z,7.43
2022-12-04T08:36:11.367Z,7.60
2022-12-04T08:38:38.478Z,9.30
2022-12-04T08:41:07.622Z,9.95
2022-12-04T08:43:34.708Z,7.93
2022-12-04T08:46:08.211Z,9.85
2022-12-04T08:48:34.912Z,8.23
2022-12-04T08:51:04.251Z,7.10
2022-12-04T08:53:32.024Z,8.93
2022-12-04T08:56:01.518Z,8.52
2022-12-04T08:58:28.217Z,8.57
2022-12-04T09:00:55.127Z,7.63
2022-12-04T09:03:26.198Z,8.15
2022-12-04T09:06:01.997Z,8.20
2022-12-04T09:08:28.894Z,7.55
2022-12-04T09:10:56.131Z,7.90
2022-12-04T09:13:22.824Z,8.47
2022-12-04T09:15:49.816Z,8.00
2022-12-04T09:18:16.457Z,8.40
2022-12-04T09:20:43.428Z,7.97
2022-12-04T09:23:10.059Z,8.07
2022-12-04T09:25:37.939Z,7.40
2022-12-04T09:28:04.778Z,6.72
2022-12-04T09:30:31.688Z,7.70
2022-12-04T09:32:58.638Z,7.03
2022-12-04T09:35:25.629Z,7.68
2022-12-04T09:37:52.363Z,8.53
2022-12-04T09:40:33.751Z,7.07
2022-12-04T09:43:22.080Z,9.95
2022-12-04T09:45:53.584Z,7.10
2022-12-04T09:48:22.520Z,8.18
2022-12-04T09:50:50.772Z,9.03
2022-12-04T09:53:28.714Z,10.07
2022-12-04T09:55:58.692Z,9.77
2022-12-04T09:58:32.488Z,7.10
2022-12-04T10:01:03.101Z,7.65
2022-12-04T10:03:30.973Z,7.17
2022-12-04T10:06:14.844Z,8.63
2022-12-04T10:08:44.051Z,9.02
2022-12-04T10:11:32.218Z,10.07
2022-12-04T10:14:14.889Z,10.38
2022-12-04T10:16:50.826Z,8.87
2022-12-04T10:19:26.685Z,7.40
2022-12-04T10:22:08.731Z,7.25
2022-12-04T10:24:44.055Z,6.45
2022-12-04T10:27:34.857Z,10.95
2022-12-04T10:30:15.936Z,10.87
2022-12-04T10:32:45.605Z,10.82
2022-12-04T10:35:23.340Z,9.15
2022-12-04T10:38:11.200Z,7.72
2022-12-04T10:40:54.042Z,8.50
2022-12-04T10:43:38.149Z,8.43
2022-12-04T10:46:06.148Z,9.75
2022-12-04T10:48:37.894Z,10.18
2022-12-04T10:51:04.722Z,10.85
2022-12-04T10:53:35.667Z,10.73
2022-12-04T10:56:21.771Z,9.27
2022-12-04T10:59:15.695Z,9.82
2022-12-04T11:01:42.497Z,10.70
2022-12-04T11:04:20.655Z,9.63
2022-12-04T11:06:50.344Z,10.48
2022-12-04T11:09:24.386Z,11.63
2022-12-04T11:11:52.274Z,9.57
2022-12-04T11:14:22.574Z,10.93
2022-12-04T11:17:02.396Z,7.97
2022-12-04T11:19:32.884Z,7.85
2022-12-04T11:22:12.053Z,6.77
2022-12-04T11:24:40.413Z,8.77
2022-12-04T11:27:16.088Z,10.43
2022-12-04T11:29:46.452Z,9.43
2022-12-04T11:32:20.199Z,10.63
2022-12-04T11:34:48.905Z,11.50
2022-12-04T11:37:21.602Z,8.23
2022-12-04T11:39:50.950Z,7.30
2022-12-04T11:42:24.313Z,7.25
2022-12-04T11:44:58.790Z,7.75
2022-12-04T11:47:29.355Z,7.60
2022-12-04T11:50:05.908Z,8.35
2022-12-04T11:52:55.235Z,10.32
2022-12-04T11:55:29.294Z,9.32
2022-12-04T11:57:57.217Z,9.20
2022-12-04T12:00:26.351Z,8.80
2022-12-04T12:03:07.087Z,8.52
2022-12-04T12:05:40.215Z,8.15
2022-12-04T12:08:43.376Z,8.32
2022-12-04T12:11:18.169Z,6.75
2022-12-04T12:14:00.096Z,6.70
2022-12-04T12:16:51.664Z,7.20
2022-12-04T12:19:55.534Z,6.50
2022-12-04T12:22:30.516Z,6.85
2022-12-04T12:25:16.119Z,5.85
2022-12-04T12:28:14.299Z,9.00
2022-12-04T12:31:06.610Z,7.83
2022-12-04T12:33:44.859Z,6.85
2022-12-04T12:36:14.253Z,8.80
2022-12-04T12:39:18.991Z,9.38
2022-12-04T12:41:52.883Z,9.80
2022-12-04T12:44:30.702Z,7.97
2022-12-04T12:47:26.486Z,9.50
2022-12-04T12:50:00.600Z,10.23
2022-12-04T12:52:55.130Z,10.23
2022-12-04T12:55:30.621Z,8.05
2022-12-04T12:58:13.582Z,6.93
2022-12-04T13:00:49.425Z,9.80
2022-12-04T13:03:40.181Z,8.20
2022-12-04T13:06:14.664Z,7.72
2022-12-04T13:08:59.407Z,8.38
2022-12-04T13:11:28.963Z,6.93
2022-12-04T13:14:03.454Z,6.28
2022-12-04T13:16:37.963Z,6.38
2022-12-04T13:19:26.528Z,6.40
2022-12-04T13:22:08.210Z,5.63
2022-12-04T13:24:56.404Z,5.50
2022-12-04T13:27:46.390Z,8.43
2022-12-04T13:30:23.636Z,7.55
2022-12-04T13:33:30.249Z,8.75
2022-12-04T13:36:04.339Z,9.48
2022-12-04T13:38:58.248Z,9.40
2022-12-04T13:41:28.179Z,9.20
2022-12-04T13:43:57.476Z,8.57
2022-12-04T13:46:31.504Z,7.57
2022-12-04T13:49:26.464Z,7.15
2022-12-04T13:51:55.084Z,7.43
2022-12-04T13:54:34.754Z,7.50
2022-12-04T13:57:22.011Z,7.10
2022-12-04T13:59:49.610Z,7.63
2022-12-04T14:02:35.123Z,7.30
2022-12-04T14:05:06.554Z,8.47
2022-12-04T14:07:38.524Z,7.75
2022-12-04T14:10:22.912Z,7.47
2022-12-04T14:13:00.304Z,7.80
2022-12-04T14:15:31.298Z,7.50
2022-12-04T14:18:00.992Z,10.13
2022-12-04T14:20:30.865Z,7.45
2022-12-04T14:23:22.661Z,7.20
2022-12-04T14:25:51.211Z,7.88
2022-12-04T14:28:25.920Z,10.45
2022-12-04T14:31:11.029Z,8.37
2022-12-04T14:34:15.969Z,8.05
2022-12-04T14:36:45.485Z,8.95
2022-12-04T14:39:20.654Z,8.55
2022-12-04T14:41:47.667Z,7.25
2022-12-04T14:44:27.666Z,7.40
2022-12-04T14:46:59.938Z,8.77
2022-12-04T14:49:40.134Z,9.75
2022-12-04T14:52:14.907Z,9.43
2022-12-04T14:55:07.435Z,9.55
2022-12-04T14:57:57.593Z,7.60
2022-12-04T15:00:25.010Z,6.43
2022-12-04T15:02:56.060Z,8.57
2022-12-04T15:05:27.289Z,8.90
2022-12-04T15:07:59.482Z,8.73
2022-12-04T15:10:47.632Z,9.27
2022-12-04T15:13:25.768Z,8.80
2022-12-04T15:15:52.639Z,7.47
2022-12-04T15:18:19.675Z,7.72
2022-12-04T15:20:49.534Z,7.35
2022-12-04T15:23:28.226Z,7.57
2022-12-04T15:26:01.565Z,6.03
2022-12-04T15:28:50.050Z,8.07
2022-12-04T15:31:22.442Z,7.75
2022-12-04T15:33:55.448Z,6.80
2022-12-04T15:36:34.189Z,6.90
2022-12-04T15:39:02.637Z,7.55
2022-12-04T15:41:36.095Z,7.18
2022-12-04T15:44:22.448Z,7.05
2022-12-04T15:46:49.291Z,6.97
2022-12-04T15:49:24.868Z,6.50
2022-12-04T15:52:02.736Z,8.43
2022-12-04T15:54:30.330Z,7.30
2022-12-04T15:57:05.970Z,6.30
2022-12-04T15:59:36.525Z,7.47
2022-12-04T16:02:23.884Z,6.10
2022-12-04T16:04:52.027Z,5.82
2022-12-04T16:07:25.031Z,4.97
2022-12-04T16:10:04.160Z,7.03
2022-12-04T16:12:32.054Z,7.18
2022-12-04T16:14:59.351Z,6.57
2022-12-04T16:17:34.039Z,5.95
2022-12-04T16:20:01.138Z,5.53
2022-12-04T16:22:29.996Z,5.95
2022-12-04T16:24:57.065Z,5.07
2022-12-04T16:27:25.574Z,8.17
2022-12-04T16:29:53.001Z,7.82
2022-12-04T16:32:22.050Z,7.18
2022-12-04T16:34:49.185Z,6.05
2022-12-04T16:37:19.028Z,5.25
2022-12-04T16:39:46.752Z,5.60
2022-12-04T16:42:22.725Z,4.88
2022-12-04T16:44:50.187Z,6.68
2022-12-04T16:47:17.447Z,5.38
2022-12-04T16:49:45.647Z,7.18
2022-12-04T16:52:12.746Z,7.33
2022-12-04T16:54:40.308Z,7.72
2022-12-04T16:57:07.955Z,6.88
2022-12-04T16:59:35.476Z,7.28
2022-12-04T17:02:02.455Z,6.55
2022-12-04T17:04:30.029Z,5.10
2022-12-04T17:06:56.684Z,6.45
2022-12-04T17:09:23.621Z,6.10
2022-12-04T17:11:50.300Z,5.95
2022-12-04T17:14:17.240Z,5.60
2022-12-04T17:16:45.055Z,7.20
2022-12-04T17:19:12.936Z,5.90
2022-12-04T17:21:40.336Z,7.10
2022-12-04T17:24:08.104Z,6.18
2022-12-04T17:26:35.209Z,6.50
2022-12-04T17:29:02.838Z,6.90
2022-12-04T17:31:30.526Z,7.50
2022-12-04T17:33:57.843Z,7.28
2022-12-04T17:36:27.725Z,7.05
2022-12-04T17:38:59.314Z,6.45
2022-12-04T17:41:26.115Z,6.73
2022-12-04T17:43:53.376Z,6.25
2022-12-04T17:46:24.398Z,6.32
2022-12-04T17:48:51.687Z,5.63
2022-12-04T17:51:21.352Z,5.88
2022-12-04T17:53:48.426Z,5.57
2022-12-04T17:56:17.447Z,5.53
2022-12-04T17:58:46.579Z,5.50
2022-12-04T18:01:24.999Z,8.52
2022-12-04T18:03:55.202Z,7.72
2022-12-04T18:06:27.135Z,6.33
2022-12-04T18:08:55.233Z,6.47
2022-12-04T18:11:23.856Z,7.25
2022-12-04T18:14:00.701Z,5.65
2022-12-04T18:16:29.658Z,5.63
2022-12-04T18:18:58.335Z,6.25
2022-12-04T18:21:25.498Z,5.18
2022-12-04T18:23:52.828Z,4.72
2022-12-04T18:26:22.625Z,4.90
2022-12-04T18:28:56.532Z,6.70
2022-12-04T18:31:24.129Z,4.90
2022-12-04T18:33:51.421Z,4.72
2022-12-04T18:36:21.269Z,4.60
2022-12-04T18:38:56.587Z,6.32
2022-12-04T18:41:24.880Z,5.10
2022-12-04T18:43:51.870Z,5.03
2022-12-04T18:46:19.565Z,5.20
2022-12-04T18:48:48.551Z,6.10
2022-12-04T18:51:23.128Z,5.43
2022-12-04T18:53:51.710Z,6.47
2022-12-04T18:56:18.892Z,5.22
2022-12-04T18:58:48.655Z,6.18
2022-12-04T19:01:19.189Z,5.20
2022-12-04T19:03:47.991Z,4.53
2022-12-04T19:06:15.619Z,5.43
2022-12-04T19:08:43.858Z,7.38
2022-12-04T19:11:13.633Z,6.63
2022-12-04T19:13:42.096Z,5.25
2022-12-04T19:16:13.792Z,4.80
2022-12-04T19:18:42.298Z,5.53
2022-12-04T19:21:09.049Z,5.32
2022-12-04T19:23:37.478Z,6.07
2022-12-04T19:26:04.518Z,7.93
2022-12-04T19:28:32.546Z,7.88
2022-12-04T19:30:59.279Z,8.03
2022-12-04T19:33:27.887Z,7.85
2022-12-04T19:36:03.582Z,8.30
2022-12-04T19:38:32.938Z,7.40
2022-12-04T19:41:10.123Z,7.50
2022-12-04T19:43:38.981Z,5.73
2022-12-04T19:46:08.164Z,5.50
2022-12-04T19:48:37.921Z,5.63
2022-12-04T19:51:11.331Z,5.80
2022-12-04T19:53:41.064Z,7.38
2022-12-04T19:56:15.337Z,6.43
2022-12-04T19:58:43.816Z,7.77
2022-12-04T20:01:14.433Z,5.93
2022-12-04T20:03:42.765Z,5.50
2022-12-04T20:06:16.591Z,4.88
2022-12-04T20:08:45.557Z,6.70
2022-12-04T20:11:17.049Z,8.52
2022-12-04T20:13:46.683Z,6.90
2022-12-04T20:16:17.415Z,6.07
2022-12-04T20:18:45.997Z,8.30
2022-12-04T20:21:13.227Z,7.33
2022-12-04T20:23:46.426Z,7.03
2022-12-04T20:26:15.228Z,6.35
2022-12-04T20:28:42.490Z,5.78
2022-12-04T20:31:16.553Z,6.85
2022-12-04T20:33:46.689Z,7.67
2022-12-04T20:36:15.615Z,5.78
2022-12-04T20:38:43.723Z,5.00
2022-12-04T20:41:13.696Z,5.57
2022-12-04T20:43:46.798Z,6.03
2022-12-04T20:46:20.262Z,5.23
2022-12-04T20:48:50.211Z,8.38
2022-12-04T20:51:26.106Z,6.95
2022-12-04T20:53:54.593Z,6.55
2022-12-04T20:56:25.976Z,5.60
2022-12-04T20:58:57.914Z,5.63
2022-12-04T21:01:26.653Z,5.30
2022-12-04T21:03:54.361Z,5.20
2022-12-04T21:06:35.904Z,5.35
2022-12-04T21:09:07.141Z,4.88
2022-12-04T21:11:43.190Z,6.13
2022-12-04T21:14:49.369Z,5.57
2022-12-04T21:17:18.964Z,6.07
2022-12-04T21:19:47.825Z,6.22
2022-12-04T21:22:15.850Z,6.57
2022-12-04T21:24:42.816Z,8.40
2022-12-04T21:27:14.427Z,7.70
2022-12-04T21:29:44.329Z,7.55
2022-12-04T21:32:11.371Z,7.30
2022-12-04T21:34:38.323Z,8.30
2022-12-04T21:37:04.995Z,9.93
2022-12-04T21:39:32.655Z,8.90
2022-12-04T21:42:17.800Z,8.77
2022-12-04T21:44:44.739Z,8.20
2022-12-04T21:47:11.393Z,7.95
2022-12-04T21:49:38.355Z,7.00
2022-12-04T21:52:05.027Z,7.55
2022-12-04T21:54:32.161Z,8.05
2022-12-04T21:56:59.030Z,7.00
2022-12-04T21:59:26.429Z,7.03
2022-12-04T22:01:53.773Z,8.00
2022-12-04T22:04:21.414Z,8.48
2022-12-04T22:06:48.040Z,7.30
2022-12-04T22:09:15.044Z,6.53
2022-12-04T22:11:42.557Z,6.00
2022-12-04T22:14:11.335Z,6.80
2022-12-04T22:16:42.523Z,6.88
2022-12-04T22:19:11.715Z,8.75
2022-12-04T22:21:39.180Z,7.68
2022-12-04T22:24:07.250Z,12.00
2022-12-04T22:26:33.907Z,12.57
2022-12-04T22:29:00.850Z,11.80
2022-12-04T22:31:29.778Z,9.68
2022-12-04T22:33:59.367Z,8.75
2022-12-04T22:36:29.234Z,8.05
2022-12-04T22:39:09.468Z,7.77
2022-12-04T22:41:37.465Z,7.18
2022-12-04T22:44:04.980Z,7.18
2022-12-04T22:46:32.254Z,7.15
2022-12-04T22:49:00.030Z,7.25
2022-12-04T22:51:28.011Z,6.67
2022-12-04T22:53:56.955Z,7.78
2022-12-04T22:56:26.232Z,7.47
2022-12-04T22:58:53.675Z,8.43
2022-12-04T23:01:23.316Z,7.25
2022-12-04T23:03:51.161Z,7.17
2022-12-04T23:06:20.134Z,10.05
2022-12-04T23:08:47.675Z,8.48
2022-12-04T23:11:20.350Z,8.10
2022-12-04T23:13:57.232Z,7.45
2022-12-04T23:16:24.741Z,7.67
2022-12-04T23:18:52.484Z,8.93
2022-12-04T23:21:20.584Z,7.68
2022-12-04T23:23:49.062Z,7.72
2022-12-04T23:26:19.244Z,6.80
2022-12-04T23:28:46.891Z,9.10
2022-12-04T23:31:14.073Z,7.70
2022-12-04T23:33:41.640Z,7.50
2022-12-04T23:36:10.272Z,9.30
2022-12-04T23:38:39.340Z,8.98
2022-12-04T23:41:13.497Z,10.07
2022-12-04T23:43:41.410Z,9.30
2022-12-04T23:46:11.586Z,9.00
2022-12-04T23:48:40.112Z,9.27
2022-12-04T23:51:08.288Z,9.30
2022-12-04T23:53:35.626Z,12.73
2022-12-04T23:56:09.634Z,11.60
2022-12-04T23:58:37.280Z,10.07
